Time;durP1;ratioP1;P1;durP2;ratioP2;P2;SDS_P1;SDS_P2;PMS_P1;PMS_P2;Temp;Humidity;BMP_temperature;BMP_pressure;BME280_temperature;BME280_humidity;BME280_pressure;Samples;Min_cycle;Max_cycle;Signal;HPM_P1;HPM_P2
2021/05/09 00:00:13;;;;;;;0.70;0.60;;;13.30;99.90;;;13.87;100.00;-21058.94;4993818;28;20427;-71
2021/05/09 00:02:39;;;;;;;0.70;0.70;;;13.40;99.90;;;13.98;100.00;-21061.97;4976390;28;20439;-71
2021/05/09 00:05:08;;;;;;;0.70;0.60;;;13.40;99.90;;;13.93;100.00;-21060.59;4994349;28;20438;-70
2021/05/09 00:07:36;;;;;;;0.70;0.60;;;13.40;99.90;;;13.84;100.00;-21057.97;4993315;28;20513;-71
2021/05/09 00:10:05;;;;;;;0.73;0.63;;;13.30;99.90;;;13.83;100.00;-21057.72;4992596;28;20442;-70
2021/05/09 00:12:33;;;;;;;0.70;0.60;;;13.20;99.90;;;13.84;100.00;-21058.13;4994584;28;20423;-70
2021/05/09 00:15:00;;;;;;;0.70;0.60;;;13.30;99.90;;;13.69;100.00;-21054.13;4994120;28;20423;-70
2021/05/09 00:17:26;;;;;;;0.70;0.60;;;13.10;99.90;;;13.84;100.00;-21057.97;4992750;28;20460;-70
2021/05/09 00:19:54;;;;;;;1.33;1.23;;;13.20;99.90;;;13.89;100.00;-21059.38;5006906;28;20494;-70
2021/05/09 00:22:21;;;;;;;0.70;0.60;;;13.30;99.90;;;13.97;100.00;-21061.69;5013463;28;20803;-69
2021/05/09 00:24:48;;;;;;;0.70;0.70;;;13.40;99.90;;;14.07;100.00;-21064.19;5002103;28;20804;-71
2021/05/09 00:27:15;;;;;;;0.70;0.60;;;13.50;99.90;;;14.11;100.00;-21065.28;4993789;28;20906;-71
2021/05/09 00:29:43;;;;;;;0.70;0.60;;;13.50;99.90;;;14.04;100.00;-21063.34;4977356;28;20450;-70
2021/05/09 00:32:10;;;;;;;0.70;0.60;;;13.40;99.90;;;13.91;100.00;-21059.91;5000713;28;20438;-70
2021/05/09 00:34:37;;;;;;;0.70;0.60;;;13.30;99.90;;;13.81;100.00;-21057.16;4998591;28;20444;-71
2021/05/09 00:37:04;;;;;;;0.70;0.60;;;13.20;99.90;;;13.78;100.00;-21056.47;4988915;28;20489;-69
2021/05/09 00:39:31;;;;;;;0.80;0.70;;;13.10;99.90;;;13.74;100.00;-21055.38;4995748;28;20818;-68
2021/05/09 00:42:02;;;;;;;0.70;0.60;;;13.10;99.90;;;13.74;100.00;-21055.50;4970901;28;20493;-69
2021/05/09 00:44:29;;;;;;;0.70;0.60;;;13.20;99.90;;;13.75;100.00;-21055.63;4972927;28;20441;-68
2021/05/09 00:46:57;;;;;;;0.70;0.60;;;13.20;99.90;;;13.78;100.00;-21056.47;4984212;28;20441;-68
2021/05/09 00:49:24;;;;;;;0.70;0.60;;;13.20;99.90;;;13.80;100.00;-21057.03;4995462;28;20439;-71
2021/05/09 00:51:52;;;;;;;0.70;0.50;;;13.20;99.90;;;13.71;100.00;-21054.53;4995534;28;20437;-71
2021/05/09 00:54:22;;;;;;;0.70;0.60;;;13.10;99.90;;;13.74;100.00;-21055.38;4994997;28;20466;-71
2021/05/09 00:56:49;;;;;;;0.70;0.60;;;13.10;99.90;;;13.72;100.00;-21054.81;5011384;28;20496;-71
2021/05/09 00:59:18;;;;;;;0.70;0.60;;;13.10;99.90;;;13.81;100.00;-21057.28;4980774;28;20542;-70
2021/05/09 01:01:47;;;;;;;0.70;0.60;;;13.20;99.90;;;13.74;100.00;-21055.38;4975690;28;20443;-71
2021/05/09 01:04:16;;;;;;;0.70;0.63;;;13.10;99.90;;;13.67;100.00;-21053.56;4993132;28;20446;-70
2021/05/09 01:06:45;;;;;;;0.70;0.60;;;13.10;99.90;;;13.68;100.00;-21053.72;4976411;28;20513;-70
2021/05/09 01:09:13;;;;;;;0.70;0.60;;;13.10;99.90;;;13.62;100.00;-21052.06;4993372;28;20450;-70
2021/05/09 01:11:42;;;;;;;0.70;0.60;;;13.00;99.90;;;13.50;100.00;-21048.88;4981817;28;20544;-70
2021/05/09 01:14:10;;;;;;;0.70;0.60;;;12.90;99.90;;;13.41;100.00;-21046.53;4960501;28;20460;-70
2021/05/09 01:16:37;;;;;;;0.70;0.60;;;12.80;99.90;;;13.32;100.00;-21044.06;4974694;28;20463;-71
2021/05/09 01:19:06;;;;;;;0.70;0.60;;;12.70;99.90;;;13.37;100.00;-21045.44;4979592;28;20435;-70
2021/05/09 01:21:34;;;;;;;0.70;0.60;;;12.70;99.90;;;13.40;100.00;-21046.28;4996630;28;20492;-70
2021/05/09 01:24:21;;;;;;;0.70;0.60;;;12.80;99.90;;;13.33;100.00;-21044.34;4994950;28;20440;-70
2021/05/09 01:26:49;;;;;;;0.70;0.60;;;12.80;99.90;;;13.28;100.00;-21042.97;4979696;28;20506;-70
2021/05/09 01:29:16;;;;;;;0.70;0.60;;;12.70;99.90;;;13.20;100.00;-21040.88;4996757;28;20480;-70
2021/05/09 01:31:44;;;;;;;0.70;0.60;;;12.60;99.90;;;12.97;100.00;-21034.69;4980233;28;20922;-70
2021/05/09 01:34:12;;;;;;;0.70;0.60;;;12.40;99.90;;;13.03;100.00;-21036.34;4982028;28;20521;-70
2021/05/09 01:36:40;;;;;;;0.70;0.60;;;12.50;99.90;;;13.00;100.00;-21035.50;4979459;28;20459;-70
2021/05/09 01:39:09;;;;;;;0.70;0.60;;;12.50;99.90;;;12.97;100.00;-21034.69;4996478;28;20466;-71
2021/05/09 01:41:37;;;;;;;0.70;0.60;;;12.40;99.90;;;12.90;100.00;-21032.75;4995367;28;20803;-69
2021/05/09 01:44:05;;;;;;;0.70;0.60;;;12.40;99.90;;;12.78;100.00;-21029.59;4995605;28;20831;-70
2021/05/09 01:46:32;;;;;;;0.70;0.70;;;12.30;99.90;;;12.81;100.00;-21030.41;4984225;28;20449;-70
2021/05/09 01:49:00;;;;;;;0.70;0.60;;;12.30;99.90;;;12.84;100.00;-21031.09;5008253;28;20943;-70
2021/05/09 01:51:27;;;;;;;0.70;0.60;;;12.30;99.90;;;12.72;100.00;-21027.78;4994774;28;20788;-70
2021/05/09 01:53:55;;;;;;;0.70;0.60;;;12.20;99.90;;;12.68;100.00;-21026.81;4979510;28;20517;-72
2021/05/09 01:56:23;;;;;;;0.70;0.60;;;12.10;99.90;;;12.63;100.00;-21025.44;4979708;28;20885;-68
2021/05/09 01:58:51;;;;;;;0.70;0.60;;;12.20;99.90;;;12.67;100.00;-21026.41;4995033;28;20453;-71
2021/05/09 02:01:23;;;;;;;0.70;0.60;;;12.10;99.90;;;12.56;100.00;-21023.66;4995868;28;20772;-71
2021/05/09 02:03:59;;;;;;;0.70;0.60;;;12.10;99.90;;;12.63;100.00;-21025.31;4994720;28;20533;-70
2021/05/09 02:06:30;;;;;;;0.70;0.60;;;12.10;99.90;;;12.75;100.00;-21028.63;4994184;28;20470;-70
2021/05/09 02:09:01;;;;;;;0.70;0.60;;;12.30;99.90;;;12.81;100.00;-21030.28;4997955;28;20545;-70
2021/05/09 02:11:35;;;;;;;0.70;0.60;;;12.30;99.90;;;12.80;100.00;-21030.00;4998034;28;20499;-70
2021/05/09 02:14:09;;;;;;;0.97;0.97;;;12.30;99.90;;;12.76;100.00;-21029.03;4986422;28;20966;-70
2021/05/09 02:16:39;;;;;;;0.70;0.60;;;12.20;99.90;;;12.78;100.00;-21029.44;4974405;28;20471;-70
2021/05/09 02:19:10;;;;;;;0.70;0.60;;;12.30;99.90;;;12.90;100.00;-21032.63;4974897;28;20859;-70
2021/05/09 02:21:43;;;;;;;0.70;0.60;;;12.40;99.90;;;12.92;100.00;-21033.31;4976703;28;20514;-70
2021/05/09 02:24:12;;;;;;;0.70;0.60;;;12.40;99.90;;;12.89;100.00;-21032.34;4975065;28;20553;-70
2021/05/09 02:26:39;;;;;;;0.77;0.67;;;12.40;99.90;;;12.95;100.00;-21034.13;4985295;28;20458;-70
2021/05/09 02:29:08;;;;;;;0.70;0.60;;;12.40;99.90;;;12.96;100.00;-21034.28;4994108;28;20446;-70
2021/05/09 02:31:36;;;;;;;0.70;0.60;;;12.40;99.90;;;12.90;100.00;-21032.75;5009290;28;20937;-70
2021/05/09 02:34:12;;;;;;;0.70;0.60;;;12.40;99.90;;;12.89;100.00;-21032.34;4997540;28;20964;-71
2021/05/09 02:36:39;;;;;;;0.70;0.60;;;12.40;99.90;;;12.91;100.00;-21032.88;4986863;28;20477;-68
2021/05/09 02:39:06;;;;;;;0.70;0.60;;;12.30;99.90;;;13.02;100.00;-21036.06;4993986;28;21017;-70
2021/05/09 02:41:34;;;;;;;0.70;0.60;;;12.50;99.90;;;12.96;100.00;-21034.41;4995438;28;20453;-70
2021/05/09 02:44:02;;;;;;;0.70;0.60;;;12.40;99.90;;;12.90;100.00;-21032.75;4992788;28;20445;-68
2021/05/09 02:46:29;;;;;;;0.70;0.60;;;12.30;99.90;;;12.80;100.00;-21030.00;4994003;28;21106;-68
2021/05/09 02:48:57;;;;;;;0.70;0.60;;;12.20;99.90;;;12.71;100.00;-21027.50;4995902;28;20453;-68
2021/05/09 02:51:24;;;;;;;0.70;0.60;;;12.10;99.90;;;12.63;100.00;-21025.31;4977837;28;20492;-68
2021/05/09 02:53:51;;;;;;;0.70;0.50;;;12.10;99.90;;;12.57;100.00;-21023.94;4993667;28;20503;-69
2021/05/09 02:56:19;;;;;;;0.80;0.70;;;12.10;99.90;;;12.41;100.00;-21019.50;4978191;28;20461;-68
2021/05/09 02:58:47;;;;;;;0.70;0.60;;;12.00;99.90;;;12.35;100.00;-21017.84;4977852;28;20469;-69
2021/05/09 03:01:16;;;;;;;0.70;0.60;;;11.90;99.90;;;12.32;100.00;-21017.03;4979982;28;20950;-68
2021/05/09 03:03:44;;;;;;;0.70;0.60;;;11.80;99.90;;;12.33;100.00;-21017.28;5007539;28;20426;-69
2021/05/09 03:06:11;;;;;;;0.70;0.60;;;11.80;99.90;;;12.29;100.00;-21016.19;4995449;28;20421;-69
2021/05/09 03:08:39;;;;;;;0.70;0.60;;;11.80;99.90;;;12.13;100.00;-21011.78;5007557;28;20504;-71
2021/05/09 03:11:06;;;;;;;0.70;0.50;;;11.70;99.90;;;12.11;100.00;-21011.22;4998654;28;20495;-71
2021/05/09 03:13:34;;;;;;;0.70;0.60;;;11.60;99.90;;;12.10;100.00;-21011.09;4977610;28;20850;-69
2021/05/09 03:16:03;;;;;;;0.70;0.70;;;11.60;99.90;;;11.94;100.00;-21006.81;4994371;28;20441;-69
2021/05/09 03:18:30;;;;;;;0.70;0.50;;;11.50;99.90;;;11.85;100.00;-21004.31;4994698;28;20449;-70
2021/05/09 03:20:58;;;;;;;0.70;0.60;;;11.40;99.90;;;11.74;100.00;-21001.28;4994075;28;20993;-71
2021/05/09 03:23:25;;;;;;;1.73;1.03;;;11.30;99.90;;;11.72;100.00;-21000.72;4995510;28;20501;-70
2021/05/09 03:25:53;;;;;;;0.70;0.60;;;11.20;99.90;;;11.61;100.00;-20997.97;4994103;28;20438;-71
2021/05/09 03:28:20;;;;;;;0.70;0.60;;;11.10;99.90;;;11.62;100.00;-20998.09;4961687;28;20430;-70
2021/05/09 03:30:48;;;;;;;0.70;0.60;;;11.10;99.90;;;11.59;100.00;-20997.41;4994853;28;20457;-70
2021/05/09 03:33:16;;;;;;;0.70;0.60;;;11.10;99.90;;;11.61;100.00;-20997.97;4995746;28;20499;-69
2021/05/09 03:35:43;;;;;;;0.70;0.60;;;11.10;99.90;;;11.65;100.00;-20998.78;4993552;28;20557;-70
2021/05/09 03:38:10;;;;;;;0.70;0.60;;;11.20;99.90;;;11.55;100.00;-20996.31;4993463;28;20491;-70
2021/05/09 03:40:40;;;;;;;0.70;0.60;;;11.10;99.90;;;11.59;100.00;-20997.41;4997326;28;20441;-69
2021/05/09 03:43:08;;;;;;;0.70;0.60;;;11.10;99.90;;;11.41;100.00;-20992.28;4987918;28;20471;-70
2021/05/09 03:45:35;;;;;;;0.70;0.60;;;10.90;99.90;;;11.37;100.00;-20991.31;5003029;28;21115;-71
2021/05/09 03:48:02;;;;;;;0.70;0.60;;;10.90;99.90;;;11.38;100.00;-20991.59;5013811;28;20474;-70
2021/05/09 03:50:30;;;;;;;0.70;0.63;;;10.90;99.90;;;11.22;100.00;-20987.31;4996716;28;20786;-70
2021/05/09 03:52:58;;;;;;;0.70;0.50;;;10.80;99.90;;;11.14;100.00;-20985.09;5014097;28;20488;-70
2021/05/09 03:55:25;;;;;;;0.70;0.60;;;10.70;99.90;;;11.02;100.00;-20981.78;5013919;28;20466;-70
2021/05/09 03:57:52;;;;;;;0.70;0.50;;;10.60;99.90;;;10.98;100.00;-20980.81;4996104;28;20465;-70
2021/05/09 04:00:19;;;;;;;0.70;0.60;;;10.60;99.90;;;11.01;100.00;-20981.66;4998406;28;20600;-69
2021/05/09 04:02:47;;;;;;;0.70;0.60;;;10.60;99.90;;;10.88;100.00;-20978.19;4992189;28;20462;-69
2021/05/09 04:05:14;;;;;;;0.70;0.60;;;10.50;99.90;;;10.96;100.00;-20980.28;4993665;28;20864;-70
2021/05/09 04:07:42;;;;;;;0.70;0.60;;;10.60;99.90;;;11.06;100.00;-20983.03;4993757;28;20493;-70
2021/05/09 04:10:10;;;;;;;0.70;0.60;;;10.70;99.90;;;11.09;100.00;-20983.72;4993966;28;20793;-69
2021/05/09 04:12:37;;;;;;;0.70;0.60;;;10.70;99.90;;;11.23;100.00;-20987.47;4994164;28;20444;-69
2021/05/09 04:15:06;;;;;;;0.70;0.60;;;10.80;99.90;;;11.19;100.00;-20986.50;4993144;28;20966;-70
2021/05/09 04:17:33;;;;;;;0.70;0.60;;;10.80;99.90;;;11.21;100.00;-20987.03;4992704;28;20469;-70
2021/05/09 04:20:01;;;;;;;0.70;0.50;;;10.80;99.90;;;11.27;100.00;-20988.72;4993607;28;20929;-69
2021/05/09 04:22:28;;;;;;;0.70;0.60;;;10.80;99.90;;;11.20;100.00;-20986.63;4993630;28;20448;-70
2021/05/09 04:24:56;;;;;;;0.70;0.50;;;10.80;99.90;;;11.35;100.00;-20990.78;4995651;28;20485;-69
2021/05/09 04:27:23;;;;;;;0.70;0.50;;;10.90;99.90;;;11.45;100.00;-20993.53;5003554;28;20472;-69
2021/05/09 04:29:51;;;;;;;0.70;0.50;;;11.00;99.90;;;11.56;100.00;-20996.59;4993795;28;20446;-69
2021/05/09 04:32:17;;;;;;;0.70;0.60;;;11.10;99.90;;;11.60;100.00;-20997.69;4993690;28;20976;-69
2021/05/09 04:34:44;;;;;;;0.70;0.50;;;11.10;99.90;;;11.83;100.00;-21003.75;4993722;28;20423;-70
2021/05/09 04:37:12;;;;;;;0.70;0.60;;;11.30;99.90;;;11.99;100.00;-21008.06;4993942;28;20453;-70
2021/05/09 04:39:39;;;;;;;0.70;0.60;;;11.50;99.90;;;12.04;100.00;-21009.56;4991022;28;20481;-70
2021/05/09 04:42:07;;;;;;;0.70;0.60;;;11.50;99.90;;;12.16;100.00;-21012.75;4992969;28;20453;-70
2021/05/09 04:44:36;;;;;;;0.70;0.60;;;11.60;99.90;;;12.25;100.00;-21015.09;4993518;28;20422;-70
2021/05/09 04:47:03;;;;;;;0.70;0.60;;;11.70;99.90;;;12.27;100.00;-21015.66;4993656;28;20449;-69
2021/05/09 04:49:30;;;;;;;0.70;0.50;;;11.70;99.90;;;12.30;100.00;-21016.47;4976318;28;20770;-69
2021/05/09 04:51:57;;;;;;;0.70;0.60;;;11.80;99.90;;;12.37;100.00;-21018.25;4996793;28;20419;-69
2021/05/09 04:54:25;;;;;;;0.70;0.50;;;11.90;99.90;;;12.39;100.00;-21018.81;4995425;28;20474;-69
2021/05/09 04:56:52;;;;;;;0.80;0.70;;;11.90;99.90;;;12.42;100.00;-21019.66;4996719;28;20563;-69
2021/05/09 04:59:21;;;;;;;0.70;0.60;;;11.90;99.90;;;12.57;100.00;-21023.78;4996047;28;20453;-71
2021/05/09 05:01:48;;;;;;;0.70;0.60;;;12.00;99.90;;;12.57;100.00;-21023.78;4980802;28;20433;-71
2021/05/09 05:04:15;;;;;;;0.70;0.60;;;12.00;99.90;;;12.66;100.00;-21026.28;4996927;28;20465;-70
2021/05/09 05:06:42;;;;;;;0.70;0.60;;;12.10;99.90;;;12.67;100.00;-21026.53;4997739;28;20438;-70
2021/05/09 05:09:09;;;;;;;0.80;0.73;;;12.10;99.90;;;12.84;100.00;-21030.97;4995425;28;20457;-69
2021/05/09 05:11:36;;;;;;;0.70;0.60;;;12.20;99.90;;;13.05;100.00;-21036.88;4996328;28;20457;-70
2021/05/09 05:14:04;;;;;;;0.70;0.70;;;12.50;99.90;;;13.18;100.00;-21040.19;4995537;28;21020;-70
2021/05/09 05:16:32;;;;;;;0.70;0.50;;;12.60;99.90;;;13.10;100.00;-21038.13;4996722;28;20850;-70
2021/05/09 05:19:00;;;;;;;0.70;0.60;;;12.40;99.90;;;13.22;100.00;-21041.31;4996142;28;20417;-70
2021/05/09 05:21:28;;;;;;;0.70;0.60;;;12.60;99.90;;;13.35;100.00;-21044.88;4996647;28;20444;-70
2021/05/09 05:23:54;;;;;;;0.73;0.63;;;12.70;99.90;;;13.33;100.00;-21044.34;4996991;28;20456;-71
2021/05/09 05:26:21;;;;;;;0.70;0.70;;;12.60;99.90;;;13.50;100.00;-21049.03;4986587;28;20443;-70
2021/05/09 05:28:48;;;;;;;0.70;0.60;;;12.80;99.90;;;13.60;100.00;-21051.50;4997718;28;20427;-69
2021/05/09 05:31:16;;;;;;;0.70;0.70;;;12.90;99.90;;;13.76;100.00;-21056.06;4996276;28;20528;-70
2021/05/09 05:33:43;;;;;;;0.80;0.70;;;13.10;99.90;;;13.84;100.00;-21058.13;4995847;28;20448;-69
2021/05/09 05:36:11;;;;;;;0.70;0.60;;;13.20;99.90;;;13.84;100.00;-21058.13;5002318;28;21059;-69
2021/05/09 05:38:37;;;;;;;0.70;0.60;;;13.20;99.90;;;14.07;100.00;-21064.19;4986165;28;20509;-70
2021/05/09 05:41:05;;;;;;;0.70;0.60;;;13.40;99.90;;;14.12;100.00;-21065.56;4995297;28;20499;-70
2021/05/09 05:43:32;;;;;;;0.70;0.60;;;13.40;99.90;;;14.25;100.00;-21069.28;4990806;28;20442;-70
2021/05/09 05:46:00;;;;;;;0.80;0.70;;;13.50;99.90;;;14.40;100.00;-21073.13;4981882;28;20449;-69
2021/05/09 05:48:29;;;;;;;0.80;0.70;;;13.60;99.90;;;14.59;100.00;-21078.22;5004505;28;20438;-71
2021/05/09 05:50:58;;;;;;;0.70;0.60;;;13.80;99.90;;;14.61;100.00;-21078.78;5001466;28;20441;-70
2021/05/09 05:53:29;;;;;;;0.70;0.63;;;13.80;99.90;;;14.52;100.00;-21076.31;5009498;28;20462;-71
2021/05/09 05:55:56;;;;;;;0.70;0.70;;;13.80;99.90;;;14.79;100.00;-21083.59;5005421;28;20449;-69
2021/05/09 05:58:23;;;;;;;0.70;0.60;;;14.00;99.90;;;14.92;100.00;-21087.31;5004218;28;20462;-69
2021/05/09 06:00:51;;;;;;;0.80;0.70;;;14.20;99.90;;;15.09;100.00;-21091.84;4995547;28;20422;-70
2021/05/09 06:03:20;;;;;;;0.73;0.70;;;14.30;99.90;;;15.20;100.00;-21094.75;4995318;28;20450;-70
2021/05/09 06:05:47;;;;;;;0.70;0.60;;;14.40;99.90;;;15.32;100.00;-21097.91;4998902;28;20429;-70
2021/05/09 06:08:16;;;;;;;0.70;0.60;;;14.50;99.90;;;15.48;100.00;-21102.31;4981017;28;20581;-70
2021/05/09 06:10:43;;;;;;;0.70;0.60;;;14.70;99.90;;;15.62;100.00;-21106.00;4995389;28;20505;-70
2021/05/09 06:13:11;;;;;;;0.70;0.70;;;14.90;99.90;;;15.63;100.00;-21106.28;4995413;28;20486;-70
2021/05/09 06:15:38;;;;;;;0.70;0.60;;;14.90;99.90;;;15.71;100.00;-21108.50;4995775;28;20485;-70
2021/05/09 06:18:06;;;;;;;0.77;0.60;;;14.90;99.90;;;15.66;100.00;-21107.25;4961629;28;20516;-69
2021/05/09 06:20:33;;;;;;;0.70;0.60;;;14.90;99.90;;;16.00;100.00;-21116.19;5000809;28;20459;-71
2021/05/09 06:23:03;;;;;;;0.80;0.70;;;15.10;99.90;;;16.22;100.00;-21122.09;4978462;28;20459;-69
2021/05/09 06:25:31;;;;;;;0.80;0.80;;;15.30;99.90;;;16.39;100.00;-21126.91;4995131;28;20435;-68
2021/05/09 06:27:58;;;;;;;0.70;0.60;;;15.50;99.90;;;16.56;100.00;-21131.28;4993629;28;20442;-68
2021/05/09 06:30:25;;;;;;;0.70;0.60;;;15.60;99.90;;;16.55;100.00;-21131.16;4996054;28;20418;-67
2021/05/09 06:32:53;;;;;;;0.77;0.63;;;15.80;99.90;;;16.74;100.00;-21136.25;4995929;28;20488;-68
2021/05/09 06:35:21;;;;;;;0.70;0.60;;;15.90;99.90;;;16.88;100.00;-21140.06;4996055;28;20450;-69
2021/05/09 06:37:53;;;;;;;0.70;0.60;;;16.00;99.90;;;17.07;100.00;-21145.03;4995437;28;20999;-69
2021/05/09 06:40:23;;;;;;;0.70;0.70;;;16.10;99.90;;;17.12;100.00;-21146.38;4995238;28;20410;-69
2021/05/09 06:42:56;;;;;;;0.80;0.70;;;16.40;99.90;;;17.27;100.00;-21150.38;4994185;28;20455;-69
2021/05/09 06:45:29;;;;;;;0.70;0.60;;;16.50;99.60;;;17.33;100.00;-21152.16;4999230;28;20441;-69
2021/05/09 06:47:58;;;;;;;0.80;0.80;;;16.60;98.80;;;17.66;100.00;-21160.94;4995137;28;20427;-69
2021/05/09 06:50:27;;;;;;;0.70;0.70;;;16.90;97.40;;;17.68;100.00;-21161.47;4993563;28;20535;-72
2021/05/09 06:52:55;;;;;;;0.70;0.60;;;16.90;96.80;;;18.02;100.00;-21170.66;4993956;28;20463;-70
2021/05/09 06:55:22;;;;;;;0.70;0.70;;;17.20;96.00;;;18.11;100.00;-21173.00;4995114;28;20430;-68
2021/05/09 06:57:50;;;;;;;0.70;0.60;;;17.30;95.40;;;18.25;100.00;-21176.69;4976866;28;20480;-68
2021/05/09 07:00:20;;;;;;;0.80;0.70;;;17.30;94.90;;;18.47;100.00;-21182.56;4995825;28;20804;-71
2021/05/09 07:02:48;;;;;;;0.70;0.60;;;17.60;93.80;;;18.59;100.00;-21185.84;4995036;28;20462;-69
2021/05/09 07:05:16;;;;;;;0.73;0.60;;;17.60;92.80;;;18.67;100.00;-21187.91;4995478;28;20424;-67
2021/05/09 07:07:49;;;;;;;0.80;0.60;;;17.70;93.00;;;18.76;100.00;-21190.38;4982653;28;20967;-67
2021/05/09 07:10:17;;;;;;;0.70;0.60;;;17.90;92.20;;;18.95;100.00;-21195.59;4994644;28;20429;-71
2021/05/09 07:12:44;;;;;;;0.80;0.70;;;18.00;93.00;;;19.33;100.00;-21205.56;4980073;28;20523;-69
2021/05/09 07:15:14;;;;;;;0.80;0.60;;;18.40;92.20;;;19.69;100.00;-21215.41;4996437;28;20886;-69
2021/05/09 07:17:54;;;;;;;0.70;0.60;;;18.70;90.30;;;19.49;100.00;-21210.09;4994825;28;20966;-68
2021/05/09 07:20:21;;;;;;;0.80;0.70;;;18.60;90.60;;;19.59;100.00;-21212.69;4993570;28;20843;-69
2021/05/09 07:22:53;;;;;;;0.70;0.60;;;18.60;89.20;;;19.75;100.00;-21217.06;4991183;28;20463;-68
2021/05/09 07:25:21;;;;;;;0.80;0.80;;;18.70;87.40;;;20.22;100.00;-21229.63;4976647;28;20454;-70
2021/05/09 07:27:48;;;;;;;0.80;0.60;;;18.90;87.20;;;20.34;100.00;-21232.63;4994234;28;20757;-71
2021/05/09 07:30:15;;;;;;;0.80;0.70;;;19.30;84.70;;;20.39;100.00;-21234.13;4976293;28;20494;-71
2021/05/09 07:32:43;;;;;;;0.80;0.70;;;19.10;83.60;;;20.77;100.00;-21244.25;5001643;28;20537;-69
2021/05/09 07:35:12;;;;;;;0.80;0.60;;;19.40;84.20;;;21.23;100.00;-21256.53;4994251;28;20792;-68
2021/05/09 07:37:39;;;;;;;0.73;0.60;;;19.70;81.10;;;21.41;100.00;-21261.28;4974998;28;20445;-69
2021/05/09 07:40:08;;;;;;;0.80;0.60;;;19.80;76.40;;;21.18;100.00;-21255.28;4953129;28;20459;-70
2021/05/09 07:42:35;;;;;;;0.70;0.60;;;19.90;78.00;;;21.36;100.00;-21260.06;4993570;28;20754;-70
2021/05/09 07:45:14;;;;;;;0.80;0.60;;;20.00;77.40;;;22.14;100.00;-21280.94;4999689;28;20431;-70
2021/05/09 07:47:41;;;;;;;0.80;0.60;;;20.50;77.40;;;22.92;100.00;-21301.63;4996307;28;20423;-70
2021/05/09 07:50:11;;;;;;;0.80;0.60;;;20.60;73.70;;;22.59;100.00;-21292.91;4994048;28;20497;-70
2021/05/09 07:52:39;;;;;;;0.70;0.60;;;20.70;74.20;;;23.54;100.00;-21318.22;4994192;28;20942;-70
2021/05/09 07:55:08;;;;;;;0.70;0.60;;;21.00;71.70;;;24.03;100.00;-21331.25;4991976;28;20943;-70
2021/05/09 07:57:36;;;;;;;1.00;0.90;;;21.80;67.20;;;24.81;100.00;-21352.03;4975872;28;20481;-71
2021/05/09 08:00:08;;;;;;;0.70;0.60;;;21.80;64.60;;;24.74;100.00;-21350.00;4977089;28;20411;-71
2021/05/09 08:02:39;;;;;;;0.80;0.70;;;21.80;64.60;;;24.82;100.00;-21352.16;4994023;28;20911;-68
2021/05/09 08:05:07;;;;;;;0.70;0.50;;;21.70;63.90;;;25.00;100.00;-21357.06;4994109;28;20426;-69
2021/05/09 08:07:46;;;;;;;0.70;0.50;;;22.10;63.20;;;25.23;100.00;-21363.16;4992890;28;20418;-68
2021/05/09 08:10:13;;;;;;;0.70;0.50;;;22.20;59.50;;;25.10;100.00;-21359.50;4992635;28;20497;-70
2021/05/09 08:12:41;;;;;;;1.70;1.60;;;22.60;62.80;;;25.44;100.00;-21368.72;4993640;28;20439;-70
2021/05/09 08:15:11;;;;;;;0.70;0.50;;;22.80;58.00;;;25.95;100.00;-21382.25;4997269;28;20442;-70
2021/05/09 08:17:38;;;;;;;0.70;0.50;;;22.80;58.10;;;25.85;100.00;-21379.41;5005196;28;20449;-70
2021/05/09 08:20:07;;;;;;;0.70;0.50;;;22.80;56.30;;;26.21;100.00;-21389.03;5013663;28;20406;-70
2021/05/09 08:22:35;;;;;;;0.70;0.50;;;22.70;57.10;;;25.69;100.00;-21375.22;4995715;28;20437;-71
2021/05/09 08:25:05;;;;;;;0.70;0.50;;;22.50;56.70;;;25.95;100.00;-21382.13;4997247;28;20444;-71
2021/05/09 08:27:34;;;;;;;0.70;0.50;;;22.40;58.80;;;25.48;100.00;-21369.66;5017497;28;20418;-69
2021/05/09 08:30:01;;;;;;;0.70;0.50;;;22.50;59.60;;;24.66;100.00;-21347.97;4999837;28;20846;-70
2021/05/09 08:32:28;;;;;;;0.70;0.50;;;22.40;58.60;;;24.97;100.00;-21356.09;5015736;28;20437;-70
2021/05/09 08:34:58;;;;;;;0.70;0.50;;;22.60;56.10;;;25.69;100.00;-21375.22;4999459;28;20419;-71
2021/05/09 08:37:26;;;;;;;0.70;0.50;;;23.10;56.10;;;25.90;100.00;-21380.91;4997123;28;20865;-71
2021/05/09 08:39:54;;;;;;;0.70;0.50;;;23.40;56.00;;;27.25;100.00;-21416.63;5011308;28;20477;-71
2021/05/09 08:42:22;;;;;;;0.80;0.60;;;23.80;51.10;;;27.12;100.00;-21413.25;4998721;28;20411;-71
2021/05/09 08:44:53;;;;;;;0.70;0.50;;;24.10;53.60;;;28.15;100.00;-21440.53;5000035;28;20425;-71
2021/05/09 08:47:21;;;;;;;0.70;0.50;;;24.30;49.80;;;28.75;100.00;-21456.34;4999893;28;20493;-71
2021/05/09 08:49:50;;;;;;;0.70;0.50;;;24.80;47.30;;;29.20;100.00;-21468.19;4995799;28;20950;-69
2021/05/09 08:52:19;;;;;;;0.70;0.50;;;24.50;47.60;;;28.19;100.00;-21441.50;4991828;28;20481;-70
2021/05/09 08:54:47;;;;;;;0.70;0.50;;;24.30;48.20;;;27.88;100.00;-21433.41;4992558;28;20442;-70
2021/05/09 08:57:15;;;;;;;0.70;0.50;;;24.30;47.10;;;28.59;100.00;-21452.03;4998261;28;20439;-70
2021/05/09 08:59:42;;;;;;;0.80;0.60;;;25.00;47.30;;;28.31;100.00;-21444.72;5003889;28;20176;-69
2021/05/09 09:02:10;;;;;;;0.70;0.50;;;25.20;44.10;;;29.31;100.00;-21471.16;4995874;28;20934;-69
2021/05/09 09:04:44;;;;;;;0.70;0.50;;;25.50;48.00;;;27.92;100.00;-21434.34;4997224;28;20415;-69
2021/05/09 09:07:12;;;;;;;0.70;0.50;;;25.00;44.40;;;28.24;100.00;-21442.69;4997722;28;20411;-70
2021/05/09 09:09:45;;;;;;;0.70;0.50;;;24.80;44.70;;;29.02;100.00;-21463.34;4963759;28;20471;-69
2021/05/09 09:12:13;;;;;;;0.70;0.50;;;25.30;42.80;;;28.88;100.00;-21459.69;5016802;28;20426;-70
2021/05/09 09:14:55;;;;;;;0.70;0.50;;;25.10;43.20;;;29.15;100.00;-21466.84;4998419;28;20442;-69
2021/05/09 09:17:23;;;;;;;0.70;0.50;;;25.30;42.00;;;29.13;100.00;-21466.31;4982274;28;20875;-70
2021/05/09 09:20:18;;;;;;;0.70;0.50;;;25.40;42.80;;;28.11;100.00;-21439.34;4979810;28;20420;-71
2021/05/09 09:22:56;;;;;;;0.70;0.50;;;25.20;40.30;;;29.53;100.00;-21476.81;4995947;28;20446;-71
2021/05/09 09:25:27;;;;;;;0.70;0.50;;;25.50;39.70;;;29.15;100.00;-21466.84;4996511;28;20771;-70
2021/05/09 09:27:56;;;;;;;0.70;0.50;;;25.30;40.90;;;28.88;100.00;-21459.84;5005190;28;20952;-70
2021/05/09 09:30:25;;;;;;;0.70;0.50;;;25.70;41.00;;;30.38;100.00;-21499.16;5004983;28;20820;-70
2021/05/09 09:33:11;;;;;;;0.70;0.50;;;25.80;39.10;;;29.80;100.00;-21483.97;4996137;28;20798;-69
2021/05/09 09:35:39;;;;;;;0.70;0.50;;;26.20;39.10;;;30.31;100.00;-21497.41;5010866;28;20927;-70
2021/05/09 09:38:27;;;;;;;0.70;0.50;;;26.40;37.60;;;29.94;100.00;-21487.59;5007677;28;20474;-67
2021/05/09 09:41:23;;;;;;;0.70;0.50;;;26.10;37.70;;;30.02;100.00;-21489.88;4996389;28;20419;-71
2021/05/09 09:44:04;;;;;;;0.70;0.50;;;26.10;40.10;;;31.03;100.00;-21516.38;4957619;28;20517;-71
2021/05/09 09:46:35;;;;;;;0.70;0.50;;;26.60;37.60;;;30.97;100.00;-21514.75;5007327;28;20472;-69
2021/05/09 09:49:21;;;;;;;0.70;0.50;;;26.70;36.50;;;30.67;100.00;-21506.97;4997507;28;20778;-69
2021/05/09 09:51:53;;;;;;;0.70;0.50;;;26.70;35.90;;;31.73;100.00;-21534.91;4978633;28;20916;-69
2021/05/09 09:54:32;;;;;;;0.70;0.50;;;27.20;35.30;;;31.59;100.00;-21531.16;4995078;28;20462;-70
2021/05/09 09:57:00;;;;;;;0.80;0.50;;;27.00;33.40;;;30.97;100.00;-21514.75;4995708;28;20427;-70
2021/05/09 09:59:28;;;;;;;0.70;0.50;;;27.40;35.30;;;30.78;100.00;-21509.94;4979629;28;20449;-69
2021/05/09 10:01:58;;;;;;;0.70;0.50;;;26.50;33.70;;;29.87;100.00;-21485.72;4997888;28;20902;-70
2021/05/09 10:04:26;;;;;;;0.70;0.50;;;25.80;35.80;;;28.61;100.00;-21452.56;4996488;28;20525;-70
2021/05/09 10:06:54;;;;;;;0.70;0.50;;;25.90;36.40;;;28.21;100.00;-21442.03;4996836;28;20505;-70
2021/05/09 10:09:24;;;;;;;0.70;0.50;;;25.80;37.50;;;28.41;100.00;-21447.28;4979314;28;20466;-70
2021/05/09 10:11:55;;;;;;;0.70;0.50;;;25.70;39.20;;;29.08;100.00;-21464.97;4985430;28;20542;-71